createdAt,value
2022-12-23T00:01:52.426Z,7.71
2022-12-23T00:06:55.333Z,7.88
2022-12-23T00:12:17.296Z,7.99
2022-12-23T00:17:23.480Z,7.89
2022-12-23T00:22:55.867Z,7.82
2022-12-23T00:28:02.241Z,7.98
2022-12-23T00:33:05.797Z,7.98
2022-12-23T00:38:08.630Z,8.16
2022-12-23T00:43:12.897Z,8.02
2022-12-23T00:48:33.395Z,7.97
2022-12-23T00:53:36.179Z,7.75
2022-12-23T00:58:40.410Z,7.88
2022-12-23T01:04:00.544Z,7.99
2022-12-23T01:09:03.361Z,8.05
2022-12-23T01:14:09.263Z,8.01
2022-12-23T01:19:12.711Z,8.09
2022-12-23T01:24:15.586Z,8.02
2022-12-23T01:29:19.767Z,7.92
2022-12-23T01:34:22.513Z,7.86
2022-12-23T01:39:25.271Z,7.87
2022-12-23T01:44:50.424Z,7.86
2022-12-23T01:49:57.572Z,7.79
2022-12-23T01:55:00.414Z,8.07
2022-12-23T02:00:23.304Z,7.72
2022-12-23T02:05:26.156Z,7.70
2022-12-23T02:10:43.213Z,7.74
2022-12-23T02:16:11.570Z,7.83
2022-12-23T02:21:37.034Z,7.88
2022-12-23T02:27:02.603Z,8.03
2022-12-23T02:32:11.864Z,7.95
2022-12-23T02:37:21.227Z,7.95
2022-12-23T02:42:27.104Z,7.71
2022-12-23T02:47:36.163Z,7.87
2022-12-23T02:52:42.267Z,7.62
2022-12-23T02:57:48.707Z,7.75
2022-12-23T03:02:52.954Z,8.06
2022-12-23T03:08:00.569Z,8.06
2022-12-23T03:13:11.195Z,7.89
2022-12-23T03:18:29.289Z,7.95
2022-12-23T03:23:38.542Z,7.89
2022-12-23T03:28:46.041Z,7.83
2022-12-23T03:33:55.737Z,7.75
2022-12-23T03:38:59.096Z,8.08
2022-12-23T03:44:06.491Z,8.06
2022-12-23T03:49:16.963Z,7.95
2022-12-23T03:54:25.612Z,8.10
2022-12-23T03:59:31.540Z,8.05
2022-12-23T04:04:48.226Z,8.02
2022-12-23T04:09:53.815Z,8.06
2022-12-23T04:14:56.611Z,8.15
2022-12-23T04:20:00.736Z,7.85
2022-12-23T04:25:03.595Z,8.05
2022-12-23T04:30:08.485Z,8.12
2022-12-23T04:35:13.200Z,8.13
2022-12-23T04:40:16.136Z,7.98
2022-12-23T04:45:18.846Z,7.80
2022-12-23T04:50:23.089Z,8.09
2022-12-23T04:55:25.831Z,7.71
2022-12-23T05:00:30.617Z,7.78
2022-12-23T05:05:43.453Z,7.90
2022-12-23T05:10:46.635Z,8.27
2022-12-23T05:15:51.330Z,8.03
2022-12-23T05:20:55.561Z,8.11
2022-12-23T05:25:58.301Z,7.91
2022-12-23T05:31:01.909Z,8.09
2022-12-23T05:36:07.290Z,7.81
2022-12-23T05:41:10.090Z,8.31
2022-12-23T05:46:12.933Z,8.03
2022-12-23T05:51:17.203Z,7.78
2022-12-23T05:56:20.002Z,8.27
2022-12-23T06:01:22.802Z,8.44
2022-12-23T06:06:26.946Z,8.54
2022-12-23T06:11:29.773Z,8.47
2022-12-23T06:16:32.737Z,8.38
2022-12-23T06:21:36.994Z,8.30
2022-12-23T06:26:39.837Z,8.30
2022-12-23T06:31:42.620Z,8.26
2022-12-23T06:36:46.765Z,8.13
2022-12-23T06:41:49.744Z,8.04
2022-12-23T06:46:52.456Z,8.10
2022-12-23T06:51:56.959Z,7.73
2022-12-23T06:56:59.773Z,7.64
2022-12-23T07:02:02.617Z,7.64
2022-12-23T07:07:06.915Z,7.86
2022-12-23T07:12:09.913Z,7.88
2022-12-23T07:17:12.729Z,7.59
2022-12-23T07:22:16.917Z,7.67
2022-12-23T07:27:19.673Z,7.79
2022-12-23T07:32:22.428Z,7.91
2022-12-23T07:37:26.492Z,7.95
2022-12-23T07:42:46.471Z,7.91
2022-12-23T07:47:53.493Z,7.89
2022-12-23T07:52:57.615Z,8.01
2022-12-23T07:58:00.420Z,8.06
2022-12-23T08:03:03.303Z,8.05
2022-12-23T08:08:07.623Z,8.10
2022-12-23T08:13:10.405Z,7.92
2022-12-23T08:18:13.148Z,7.95
2022-12-23T08:23:22.950Z,8.10
2022-12-23T08:28:27.418Z,7.98
2022-12-23T08:33:30.441Z,7.79
2022-12-23T08:38:34.946Z,7.82
2022-12-23T08:43:37.804Z,7.89
2022-12-23T08:48:46.946Z,7.87
2022-12-23T08:54:00.223Z,8.02
2022-12-23T08:59:04.619Z,7.95
2022-12-23T09:04:08.178Z,7.93
2022-12-23T09:09:14.384Z,7.81
2022-12-23T09:14:17.175Z,7.90
2022-12-23T09:19:20.443Z,8.06
2022-12-23T09:24:24.588Z,8.08
2022-12-23T09:29:27.458Z,8.28
2022-12-23T09:34:30.275Z,8.37
2022-12-23T09:39:34.412Z,8.10
2022-12-23T09:44:53.053Z,8.26
2022-12-23T09:49:59.389Z,8.40
2022-12-23T09:55:03.748Z,8.38
2022-12-23T10:00:14.008Z,8.54
2022-12-23T10:05:24.576Z,8.45
2022-12-23T10:10:35.545Z,8.49
2022-12-23T10:15:42.499Z,8.71
2022-12-23T10:20:50.263Z,8.60
2022-12-23T10:25:55.694Z,8.85
2022-12-23T10:31:38.108Z,8.94
2022-12-23T10:36:39.158Z,8.41
2022-12-23T10:41:49.869Z,9.13
2022-12-23T10:47:01.249Z,9.15
2022-12-23T10:52:13.141Z,9.25
2022-12-23T10:57:20.008Z,9.25
2022-12-23T11:02:44.989Z,9.16
2022-12-23T11:07:47.997Z,8.89
2022-12-23T11:12:54.811Z,8.93
2022-12-23T11:18:03.055Z,8.95
2022-12-23T11:23:08.272Z,8.88
2022-12-23T11:28:17.425Z,8.75
2022-12-23T11:33:25.252Z,8.75
2022-12-23T11:38:28.068Z,8.89
2022-12-23T11:43:34.016Z,8.91
2022-12-23T11:48:36.783Z,9.01
2022-12-23T11:53:43.964Z,9.11
2022-12-23T11:58:52.451Z,9.20
2022-12-23T12:03:59.301Z,9.34
2022-12-23T12:09:05.419Z,9.23
2022-12-23T12:14:11.535Z,9.14
2022-12-23T12:19:21.217Z,9.12
2022-12-23T12:24:28.180Z,9.13
2022-12-23T12:29:38.432Z,9.12
2022-12-23T12:34:50.605Z,9.03
2022-12-23T12:39:57.634Z,8.99
2022-12-23T12:45:14.387Z,8.87
2022-12-23T12:50:21.428Z,8.60
2022-12-23T12:55:29.237Z,8.55
2022-12-23T13:00:47.066Z,8.55
2022-12-23T13:06:00.822Z,8.55
2022-12-23T13:11:10.703Z,8.60
2022-12-23T13:16:24.539Z,8.52
2022-12-23T13:21:32.645Z,8.50
2022-12-23T13:26:39.879Z,8.43
2022-12-23T13:31:50.778Z,8.29
2022-12-23T13:36:59.104Z,8.20
2022-12-23T13:42:06.038Z,8.23
2022-12-23T13:47:19.435Z,8.19
2022-12-23T13:52:30.747Z,8.22
2022-12-23T13:57:49.145Z,8.14
2022-12-23T14:03:05.868Z,8.11
2022-12-23T14:08:22.849Z,8.08
2022-12-23T14:13:28.429Z,7.92
2022-12-23T14:18:49.191Z,7.86
2022-12-23T14:24:14.159Z,7.88
2022-12-23T14:29:35.347Z,7.79
2022-12-23T14:34:59.520Z,7.77
2022-12-23T14:40:35.472Z,7.76
2022-12-23T14:45:43.657Z,7.84
2022-12-23T14:50:58.525Z,7.92
2022-12-23T14:56:12.896Z,7.81
2022-12-23T15:01:18.148Z,7.85
2022-12-23T15:06:30.278Z,7.80
2022-12-23T15:11:35.656Z,7.73
2022-12-23T15:16:44.884Z,7.82
2022-12-23T15:21:56.686Z,7.89
2022-12-23T15:27:25.936Z,7.94
2022-12-23T15:32:28.142Z,7.95
2022-12-23T15:37:33.361Z,7.89
2022-12-23T15:42:38.226Z,7.89
2022-12-23T15:47:42.978Z,7.88
2022-12-23T15:52:50.165Z,7.89
2022-12-23T15:57:53.414Z,7.83
2022-12-23T16:03:00.914Z,7.78
2022-12-23T16:08:28.539Z,7.68
2022-12-23T16:13:33.709Z,7.66
2022-12-23T16:18:47.284Z,7.68
2022-12-23T16:23:53.597Z,7.72
2022-12-23T16:29:00.195Z,7.79
2022-12-23T16:34:08.149Z,7.66
2022-12-23T16:39:21.635Z,7.63
2022-12-23T16:44:24.464Z,7.62
2022-12-23T16:49:33.416Z,7.57
2022-12-23T16:54:38.295Z,7.61
2022-12-23T16:59:41.242Z,7.53
2022-12-23T17:04:44.630Z,7.51
2022-12-23T17:09:48.743Z,7.52
2022-12-23T17:14:51.511Z,7.49
2022-12-23T17:19:56.227Z,7.48
2022-12-23T17:25:00.398Z,7.35
2022-12-23T17:30:03.220Z,7.49
2022-12-23T17:35:06.511Z,7.54
2022-12-23T17:40:13.567Z,7.56
2022-12-23T17:45:24.753Z,7.55
2022-12-23T17:50:28.287Z,7.57
2022-12-23T17:55:32.510Z,7.61
2022-12-23T18:00:35.453Z,7.64
2022-12-23T18:05:38.343Z,7.62
2022-12-23T18:10:42.495Z,7.73
2022-12-23T18:15:46.320Z,7.82
2022-12-23T18:20:52.149Z,7.77
2022-12-23T18:25:57.290Z,7.80
2022-12-23T18:31:00.179Z,7.83
2022-12-23T18:36:03.029Z,7.89
2022-12-23T18:41:07.252Z,7.88
2022-12-23T18:46:10.176Z,7.83
2022-12-23T18:51:15.159Z,7.86
2022-12-23T18:56:21.355Z,7.90
2022-12-23T19:01:24.619Z,7.88
2022-12-23T19:06:27.638Z,7.90
2022-12-23T19:11:32.371Z,7.91
2022-12-23T19:16:35.262Z,7.93
2022-12-23T19:21:38.157Z,7.94
2022-12-23T19:26:42.385Z,7.98
2022-12-23T19:31:45.120Z,8.00
2022-12-23T19:36:48.002Z,7.95
2022-12-23T19:41:52.738Z,7.85
2022-12-23T19:46:55.530Z,7.64
2022-12-23T19:51:58.404Z,7.39
2022-12-23T19:57:02.641Z,7.64
2022-12-23T20:02:05.569Z,7.67
2022-12-23T20:07:08.697Z,7.72
2022-12-23T20:12:13.232Z,7.64
2022-12-23T20:17:16.533Z,7.76
2022-12-23T20:22:19.409Z,7.81
2022-12-23T20:27:27.899Z,7.81
2022-12-23T20:32:31.145Z,7.77
2022-12-23T20:37:33.929Z,7.78
2022-12-23T20:42:38.251Z,7.73
2022-12-23T20:47:41.062Z,7.58
2022-12-23T20:52:43.999Z,7.57
2022-12-23T20:57:48.115Z,7.42
2022-12-23T21:02:50.974Z,7.24
2022-12-23T21:07:53.798Z,7.35
2022-12-23T21:12:58.018Z,7.58
2022-12-23T21:18:01.162Z,7.52
2022-12-23T21:23:03.951Z,7.40
2022-12-23T21:28:08.103Z,7.60
2022-12-23T21:33:10.868Z,7.51
2022-12-23T21:38:13.651Z,7.62
2022-12-23T21:43:17.808Z,7.67
2022-12-23T21:48:20.570Z,7.93
2022-12-23T21:53:23.350Z,7.93
2022-12-23T21:58:27.490Z,7.78
2022-12-23T22:03:30.253Z,7.63
2022-12-23T22:08:33.026Z,7.78
2022-12-23T22:13:37.788Z,7.87
2022-12-23T22:18:41.366Z,7.93
2022-12-23T22:23:46.330Z,7.85
2022-12-23T22:28:50.927Z,7.93
2022-12-23T22:33:53.841Z,8.08
2022-12-23T22:38:59.412Z,8.21
2022-12-23T22:44:03.594Z,8.04
2022-12-23T22:49:06.572Z,8.26
2022-12-23T22:54:09.821Z,8.32
2022-12-23T22:59:21.224Z,8.42
2022-12-23T23:04:24.337Z,8.53
2022-12-23T23:09:27.156Z,8.12
2022-12-23T23:14:51.811Z,8.37
2022-12-23T23:19:54.755Z,8.29
2022-12-23T23:24:57.470Z,8.36
2022-12-23T23:30:01.570Z,8.39
2022-12-23T23:35:10.543Z,8.33
2022-12-23T23:40:14.002Z,8.11
2022-12-23T23:45:18.251Z,8.41
2022-12-23T23:50:21.128Z,8.53
2022-12-23T23:55:23.944Z,8.29
